sensor_id;sensor_type;location;lat;lon;timestamp;noise_LAeq;noise_LA_min;noise_LA_max;noise_LA01;noise_LA95
73746;Laerm;62053;52.002;5.468;2022-09-27T00:00:16;37.46;36.17;38.56;;
73746;Laerm;62053;52.002;5.468;2022-09-27T00:00:48;37.94;36.45;39.22;;
73746;Laerm;62053;52.002;5.468;2022-09-27T00:01:19;37.39;36.12;38.49;;
73746;Laerm;62053;52.002;5.468;2022-09-27T00:01:50;37.41;35.84;38.57;;
73746;Laerm;62053;52.002;5.468;2022-09-27T00:02:22;38.07;36.63;39.26;;
73746;Laerm;62053;52.002;5.468;2022-09-27T00:02:52;37.46;36.13;38.59;;
73746;Laerm;62053;52.002;5.468;2022-09-27T00:03:23;37.43;35.83;38.52;;
73746;Laerm;62053;52.002;5.468;2022-09-27T00:03:54;37.98;36.06;39.16;;
73746;Laerm;62053;52.002;5.468;2022-09-27T00:04:26;37.76;36.36;39.19;;
73746;Laerm;62053;52.002;5.468;2022-09-27T00:04:57;37.47;36.09;38.51;;
73746;Laerm;62053;52.002;5.468;2022-09-27T00:05:28;37.52;35.99;39.12;;
73746;Laerm;62053;52.002;5.468;2022-09-27T00:06:04;37.90;36.27;39.29;;
73746;Laerm;62053;52.002;5.468;2022-09-27T00:06:35;37.54;36.39;38.90;;
73746;Laerm;62053;52.002;5.468;2022-09-27T00:07:06;37.56;36.35;38.64;;
73746;Laerm;62053;52.002;5.468;2022-09-27T00:07:41;37.94;36.42;39.49;;
73746;Laerm;62053;52.002;5.468;2022-09-27T00:08:11;37.53;36.24;38.66;;
73746;Laerm;62053;52.002;5.468;2022-09-27T00:08:42;37.44;35.32;38.49;;
73746;Laerm;62053;52.002;5.468;2022-09-27T00:09:13;38.03;35.94;39.33;;
73746;Laerm;62053;52.002;5.468;2022-09-27T00:09:45;37.60;36.15;39.02;;
73746;Laerm;62053;52.002;5.468;2022-09-27T00:10:16;38.06;36.31;39.24;;
73746;Laerm;62053;52.002;5.468;2022-09-27T00:10:47;37.54;36.41;38.63;;
73746;Laerm;62053;52.002;5.468;2022-09-27T00:11:26;37.94;36.29;39.38;;
73746;Laerm;62053;52.002;5.468;2022-09-27T00:11:57;37.50;36.09;38.61;;
73746;Laerm;62053;52.002;5.468;2022-09-27T00:12:28;37.44;36.35;38.53;;
73746;Laerm;62053;52.002;5.468;2022-09-27T00:13:00;37.79;36.52;39.14;;
73746;Laerm;62053;52.002;5.468;2022-09-27T00:13:31;38.37;36.56;41.97;;
73746;Laerm;62053;52.002;5.468;2022-09-27T00:14:04;38.31;36.32;41.22;;
73746;Laerm;62053;52.002;5.468;2022-09-27T00:14:37;37.58;36.16;39.57;;
73746;Laerm;62053;52.002;5.468;2022-09-27T00:15:10;37.41;36.14;38.64;;
73746;Laerm;62053;52.002;5.468;2022-09-27T00:15:41;37.97;36.24;39.20;;
73746;Laerm;62053;52.002;5.468;2022-09-27T00:16:12;37.43;36.18;38.67;;
73746;Laerm;62053;52.002;5.468;2022-09-27T00:16:45;37.39;35.79;38.36;;
73746;Laerm;62053;52.002;5.468;2022-09-27T00:17:16;37.75;35.87;39.10;;
73746;Laerm;62053;52.002;5.468;2022-09-27T00:17:47;37.65;36.05;38.87;;
73746;Laerm;62053;52.002;5.468;2022-09-27T00:18:21;37.40;35.74;38.42;;
73746;Laerm;62053;52.002;5.468;2022-09-27T00:18:52;37.64;36.24;39.10;;
73746;Laerm;62053;52.002;5.468;2022-09-27T00:19:23;37.73;36.05;39.10;;
73746;Laerm;62053;52.002;5.468;2022-09-27T00:19:58;37.39;36.31;38.41;;
73746;Laerm;62053;52.002;5.468;2022-09-27T00:20:29;37.41;36.03;38.59;;
73746;Laerm;62053;52.002;5.468;2022-09-27T00:21:05;37.55;36.08;39.07;;
73746;Laerm;62053;52.002;5.468;2022-09-27T00:21:37;37.94;36.58;39.27;;
73746;Laerm;62053;52.002;5.468;2022-09-27T00:22:08;37.39;36.22;38.59;;
73746;Laerm;62053;52.002;5.468;2022-09-27T00:22:39;37.61;36.36;39.10;;
73746;Laerm;62053;52.002;5.468;2022-09-27T00:23:11;37.58;36.39;38.96;;
73746;Laerm;62053;52.002;5.468;2022-09-27T00:23:42;37.40;35.55;38.39;;
73746;Laerm;62053;52.002;5.468;2022-09-27T00:24:16;37.41;36.02;38.45;;
73746;Laerm;62053;52.002;5.468;2022-09-27T00:24:48;37.49;36.20;39.23;;
73746;Laerm;62053;52.002;5.468;2022-09-27T00:25:19;38.01;36.46;39.12;;
73746;Laerm;62053;52.002;5.468;2022-09-27T00:25:57;37.39;36.24;38.46;;
73746;Laerm;62053;52.002;5.468;2022-09-27T00:26:29;39.16;36.33;48.15;;
73746;Laerm;62053;52.002;5.468;2022-09-27T00:27:00;39.75;37.72;41.98;;
73746;Laerm;62053;52.002;5.468;2022-09-27T00:27:31;39.79;37.81;44.00;;
73746;Laerm;62053;52.002;5.468;2022-09-27T00:28:03;39.50;37.51;46.97;;
73746;Laerm;62053;52.002;5.468;2022-09-27T00:28:34;37.62;36.26;46.86;;
73746;Laerm;62053;52.002;5.468;2022-09-27T00:29:06;37.81;36.42;48.29;;
73746;Laerm;62053;52.002;5.468;2022-09-27T00:29:38;38.91;37.09;45.61;;
73746;Laerm;62053;52.002;5.468;2022-09-27T00:30:12;38.98;37.19;41.79;;
73746;Laerm;62053;52.002;5.468;2022-09-27T00:30:43;38.98;37.17;40.92;;
73746;Laerm;62053;52.002;5.468;2022-09-27T00:31:19;39.02;37.10;40.66;;
73746;Laerm;62053;52.002;5.468;2022-09-27T00:31:52;38.89;36.91;40.38;;
73746;Laerm;62053;52.002;5.468;2022-09-27T00:32:22;38.98;37.43;40.52;;
73746;Laerm;62053;52.002;5.468;2022-09-27T00:32:53;39.29;37.68;42.73;;
73746;Laerm;62053;52.002;5.468;2022-09-27T00:33:25;40.37;37.85;44.57;;
73746;Laerm;62053;52.002;5.468;2022-09-27T00:33:59;39.48;38.10;40.48;;
73746;Laerm;62053;52.002;5.468;2022-09-27T00:34:31;39.33;37.12;47.17;;
73746;Laerm;62053;52.002;5.468;2022-09-27T00:35:03;39.04;37.48;40.57;;
73746;Laerm;62053;52.002;5.468;2022-09-27T00:35:34;38.89;37.21;40.27;;
73746;Laerm;62053;52.002;5.468;2022-09-27T00:36:06;38.97;37.45;45.60;;
73746;Laerm;62053;52.002;5.468;2022-09-27T00:36:38;37.76;36.29;47.76;;
73746;Laerm;62053;52.002;5.468;2022-09-27T00:37:09;37.83;36.30;39.67;;
73746;Laerm;62053;52.002;5.468;2022-09-27T00:37:40;37.93;36.26;39.14;;
73746;Laerm;62053;52.002;5.468;2022-09-27T00:38:13;37.51;36.21;38.88;;
73746;Laerm;62053;52.002;5.468;2022-09-27T00:38:44;37.52;36.02;38.90;;
73746;Laerm;62053;52.002;5.468;2022-09-27T00:39:16;37.54;35.97;38.63;;
73746;Laerm;62053;52.002;5.468;2022-09-27T00:39:47;37.90;36.31;39.37;;
73746;Laerm;62053;52.002;5.468;2022-09-27T00:40:19;37.77;35.97;39.14;;
73746;Laerm;62053;52.002;5.468;2022-09-27T00:40:53;37.47;35.79;38.32;;
73746;Laerm;62053;52.002;5.468;2022-09-27T00:41:27;37.54;36.24;39.03;;
73746;Laerm;62053;52.002;5.468;2022-09-27T00:41:59;38.20;36.79;39.29;;
73746;Laerm;62053;52.002;5.468;2022-09-27T00:42:30;37.58;35.99;38.88;;
73746;Laerm;62053;52.002;5.468;2022-09-27T00:43:00;37.36;36.17;38.58;;
73746;Laerm;62053;52.002;5.468;2022-09-27T00:43:45;37.49;35.92;39.01;;
73746;Laerm;62053;52.002;5.468;2022-09-27T00:45:03;37.55;36.15;39.13;;
73746;Laerm;62053;52.002;5.468;2022-09-27T00:45:37;37.42;36.19;38.55;;
73746;Laerm;62053;52.002;5.468;2022-09-27T00:46:09;37.94;36.37;39.17;;
73746;Laerm;62053;52.002;5.468;2022-09-27T00:46:49;37.66;36.14;38.98;;
73746;Laerm;62053;52.002;5.468;2022-09-27T00:47:29;37.38;36.23;38.44;;
73746;Laerm;62053;52.002;5.468;2022-09-27T00:48:05;37.76;35.85;39.32;;
73746;Laerm;62053;52.002;5.468;2022-09-27T00:48:36;37.70;36.40;39.09;;
73746;Laerm;62053;52.002;5.468;2022-09-27T00:49:21;37.39;35.88;38.59;;
73746;Laerm;62053;52.002;5.468;2022-09-27T00:50:00;37.61;36.14;38.95;;
73746;Laerm;62053;52.002;5.468;2022-09-27T00:50:40;37.41;35.85;38.46;;
73746;Laerm;62053;52.002;5.468;2022-09-27T00:51:13;37.40;36.24;38.72;;
73746;Laerm;62053;52.002;5.468;2022-09-27T00:51:50;37.82;36.26;39.09;;
73746;Laerm;62053;52.002;5.468;2022-09-27T00:52:28;37.55;35.51;39.23;;
73746;Laerm;62053;52.002;5.468;2022-09-27T00:53:11;37.46;35.85;38.80;;
73746;Laerm;62053;52.002;5.468;2022-09-27T00:53:50;37.45;35.69;38.49;;
73746;Laerm;62053;52.002;5.468;2022-09-27T00:54:28;38.15;36.62;41.77;;
73746;Laerm;62053;52.002;5.468;2022-09-27T00:55:08;37.53;36.20;39.28;;
73746;Laerm;62053;52.002;5.468;2022-09-27T00:55:47;37.50;35.98;43.88;;
73746;Laerm;62053;52.002;5.468;2022-09-27T00:56:28;37.47;35.97;38.58;;
73746;Laerm;62053;52.002;5.468;2022-09-27T00:57:02;37.77;36.13;38.99;;
73746;Laerm;62053;52.002;5.468;2022-09-27T00:57:34;37.46;36.06;38.64;;
73746;Laerm;62053;52.002;5.468;2022-09-27T00:58:06;37.92;36.35;39.35;;
73746;Laerm;62053;52.002;5.468;2022-09-27T00:58:45;37.52;36.16;38.76;;
73746;Laerm;62053;52.002;5.468;2022-09-27T00:59:25;37.48;35.84;38.53;;
73746;Laerm;62053;52.002;5.468;2022-09-27T01:00:04;37.91;36.44;39.13;;
73746;Laerm;62053;52.002;5.468;2022-09-27T01:00:44;37.58;36.04;39.01;;
73746;Laerm;62053;52.002;5.468;2022-09-27T01:01:18;37.46;36.23;38.46;;
73746;Laerm;62053;52.002;5.468;2022-09-27T01:01:50;37.49;36.13;38.58;;
73746;Laerm;62053;52.002;5.468;2022-09-27T01:02:21;38.11;36.69;39.31;;
73746;Laerm;62053;52.002;5.468;2022-09-27T01:02:55;37.49;36.12;39.07;;
73746;Laerm;62053;52.002;5.468;2022-09-27T01:03:36;37.75;35.73;39.13;;
73746;Laerm;62053;52.002;5.468;2022-09-27T01:04:16;37.79;36.32;41.63;;
73746;Laerm;62053;52.002;5.468;2022-09-27T01:04:48;37.65;36.35;40.09;;
73746;Laerm;62053;52.002;5.468;2022-09-27T01:05:26;37.69;36.28;39.30;;
73746;Laerm;62053;52.002;5.468;2022-09-27T01:05:59;38.18;36.93;39.38;;
73746;Laerm;62053;52.002;5.468;2022-09-27T01:06:31;37.72;36.39;38.99;;
73746;Laerm;62053;52.002;5.468;2022-09-27T01:07:02;37.50;36.21;38.80;;
73746;Laerm;62053;52.002;5.468;2022-09-27T01:07:33;37.69;36.27;39.20;;
73746;Laerm;62053;52.002;5.468;2022-09-27T01:08:04;37.47;35.98;38.48;;
73746;Laerm;62053;52.002;5.468;2022-09-27T01:08:35;37.42;35.47;38.41;;
73746;Laerm;62053;52.002;5.468;2022-09-27T01:09:10;38.08;36.22;39.19;;
73746;Laerm;62053;52.002;5.468;2022-09-27T01:09:41;38.01;36.42;39.12;;
73746;Laerm;62053;52.002;5.468;2022-09-27T01:10:14;37.43;36.08;38.48;;
73746;Laerm;62053;52.002;5.468;2022-09-27T01:11:08;37.57;35.95;39.09;;
73746;Laerm;62053;52.002;5.468;2022-09-27T01:11:50;37.77;35.93;39.55;;
73746;Laerm;62053;52.002;5.468;2022-09-27T01:12:41;37.46;36.13;38.71;;
73746;Laerm;62053;52.002;5.468;2022-09-27T01:13:22;37.59;35.86;39.08;;
73746;Laerm;62053;52.002;5.468;2022-09-27T01:14:17;37.99;36.31;39.18;;
73746;Laerm;62053;52.002;5.468;2022-09-27T01:15:13;37.50;35.89;38.95;;
73746;Laerm;62053;52.002;5.468;2022-09-27T01:15:59;37.48;36.10;38.57;;
73746;Laerm;62053;52.002;5.468;2022-09-27T01:16:47;37.72;36.34;39.21;;
73746;Laerm;62053;52.002;5.468;2022-09-27T01:17:42;38.58;36.04;47.64;;
73746;Laerm;62053;52.002;5.468;2022-09-27T01:18:31;38.85;37.09;40.69;;
73746;Laerm;62053;52.002;5.468;2022-09-27T01:19:26;38.82;36.95;40.70;;
73746;Laerm;62053;52.002;5.468;2022-09-27T01:21:55;39.43;37.49;41.18;;
73746;Laerm;62053;52.002;5.468;2022-09-27T01:22:38;39.48;37.27;41.10;;
73746;Laerm;62053;52.002;5.468;2022-09-27T01:25:06;39.72;37.73;41.12;;
73746;Laerm;62053;52.002;5.468;2022-09-27T01:26:03;39.75;37.80;41.20;;
73746;Laerm;62053;52.002;5.468;2022-09-27T01:27:27;39.72;36.63;46.76;;
73746;Laerm;62053;52.002;5.468;2022-09-27T01:28:20;37.51;36.11;38.62;;
73746;Laerm;62053;52.002;5.468;2022-09-27T01:29:06;37.68;36.10;39.04;;
73746;Laerm;62053;52.002;5.468;2022-09-27T01:30:08;37.88;36.29;39.22;;
73746;Laerm;62053;52.002;5.468;2022-09-27T01:30:47;37.59;35.38;39.09;;
73746;Laerm;62053;52.002;5.468;2022-09-27T01:31:32;37.50;36.02;38.64;;
73746;Laerm;62053;52.002;5.468;2022-09-27T01:32:17;37.80;36.27;39.23;;
73746;Laerm;62053;52.002;5.468;2022-09-27T01:33:22;37.63;35.82;40.96;;
73746;Laerm;62053;52.002;5.468;2022-09-27T01:34:07;38.13;36.56;40.48;;
73746;Laerm;62053;52.002;5.468;2022-09-27T01:34:49;37.52;35.97;38.91;;
73746;Laerm;62053;52.002;5.468;2022-09-27T01:35:37;37.48;36.05;38.54;;
73746;Laerm;62053;52.002;5.468;2022-09-27T01:36:27;37.73;36.23;39.19;;
73746;Laerm;62053;52.002;5.468;2022-09-27T01:37:23;37.46;35.99;38.73;;
73746;Laerm;62053;52.002;5.468;2022-09-27T01:38:12;37.86;36.09;39.20;;
73746;Laerm;62053;52.002;5.468;2022-09-27T01:38:59;37.52;36.12;38.87;;
73746;Laerm;62053;52.002;5.468;2022-09-27T01:39:48;37.86;36.04;39.24;;
73746;Laerm;62053;52.002;5.468;2022-09-27T01:40:32;37.42;35.64;38.65;;
73746;Laerm;62053;52.002;5.468;2022-09-27T01:41:21;37.90;36.10;39.13;;
73746;Laerm;62053;52.002;5.468;2022-09-27T01:42:07;37.59;35.96;38.99;;
73746;Laerm;62053;52.002;5.468;2022-09-27T01:42:48;37.54;35.91;39.34;;
73746;Laerm;62053;52.002;5.468;2022-09-27T01:43:29;37.89;36.19;39.23;;
73746;Laerm;62053;52.002;5.468;2022-09-27T01:44:19;37.44;35.61;38.59;;
73746;Laerm;62053;52.002;5.468;2022-09-27T01:45:02;37.59;35.92;39.24;;
73746;Laerm;62053;52.002;5.468;2022-09-27T01:45:43;38.30;37.03;39.33;;
73746;Laerm;62053;52.002;5.468;2022-09-27T01:46:23;38.44;36.87;40.44;;
73746;Laerm;62053;52.002;5.468;2022-09-27T01:47:02;38.37;36.18;41.59;;
73746;Laerm;62053;52.002;5.468;2022-09-27T01:47:41;37.61;36.21;39.52;;
73746;Laerm;62053;52.002;5.468;2022-09-27T01:48:19;37.87;36.40;39.44;;
73746;Laerm;62053;52.002;5.468;2022-09-27T01:48:56;37.47;35.60;38.76;;
73746;Laerm;62053;52.002;5.468;2022-09-27T01:49:38;37.78;36.41;39.99;;
73746;Laerm;62053;52.002;5.468;2022-09-27T01:50:18;38.12;36.53;40.00;;
73746;Laerm;62053;52.002;5.468;2022-09-27T01:50:58;37.50;35.91;39.49;;
73746;Laerm;62053;52.002;5.468;2022-09-27T01:51:43;37.67;36.16;39.15;;
73746;Laerm;62053;52.002;5.468;2022-09-27T01:52:22;37.86;36.31;39.11;;
73746;Laerm;62053;52.002;5.468;2022-09-27T01:53:01;37.37;35.97;38.43;;
73746;Laerm;62053;52.002;5.468;2022-09-27T01:53:39;37.48;35.97;39.27;;
73746;Laerm;62053;52.002;5.468;2022-09-27T01:54:22;37.84;36.00;39.33;;
73746;Laerm;62053;52.002;5.468;2022-09-27T01:55:00;37.40;36.04;38.42;;
73746;Laerm;62053;52.002;5.468;2022-09-27T01:55:37;37.39;35.77;38.67;;
73746;Laerm;62053;52.002;5.468;2022-09-27T01:56:15;38.17;36.73;39.22;;
73746;Laerm;62053;52.002;5.468;2022-09-27T01:56:54;37.52;35.99;39.05;;
73746;Laerm;62053;52.002;5.468;2022-09-27T01:57:36;37.40;35.96;38.68;;
73746;Laerm;62053;52.002;5.468;2022-09-27T01:58:14;37.64;35.94;39.02;;
73746;Laerm;62053;52.002;5.468;2022-09-27T01:58:55;37.41;36.12;38.58;;
73746;Laerm;62053;52.002;5.468;2022-09-27T01:59:38;37.72;36.43;39.95;;
73746;Laerm;62053;52.002;5.468;2022-09-27T02:00:12;38.01;36.57;40.43;;
73746;Laerm;62053;52.002;5.468;2022-09-27T02:00:50;37.40;36.31;38.56;;
73746;Laerm;62053;52.002;5.468;2022-09-27T02:01:28;37.39;36.02;38.61;;
73746;Laerm;62053;52.002;5.468;2022-09-27T02:02:08;37.66;35.78;39.30;;
73746;Laerm;62053;52.002;5.468;2022-09-27T02:02:47;37.79;36.31;38.94;;
73746;Laerm;62053;52.002;5.468;2022-09-27T02:03:27;37.37;35.85;38.45;;
73746;Laerm;62053;52.002;5.468;2022-09-27T02:04:02;37.37;35.81;38.47;;
73746;Laerm;62053;52.002;5.468;2022-09-27T02:04:39;37.41;35.91;38.41;;
73746;Laerm;62053;52.002;5.468;2022-09-27T02:05:16;37.85;36.30;39.18;;
73746;Laerm;62053;52.002;5.468;2022-09-27T02:05:54;37.37;36.13;38.47;;
73746;Laerm;62053;52.002;5.468;2022-09-27T02:06:34;37.42;36.03;38.52;;
73746;Laerm;62053;52.002;5.468;2022-09-27T02:07:16;37.86;36.31;39.25;;
73746;Laerm;62053;52.002;5.468;2022-09-27T02:07:56;37.69;36.31;39.22;;
73746;Laerm;62053;52.002;5.468;2022-09-27T02:08:38;37.50;36.26;38.82;;
73746;Laerm;62053;52.002;5.468;2022-09-27T02:09:17;37.76;36.14;39.47;;
73746;Laerm;62053;52.002;5.468;2022-09-27T02:09:57;37.62;36.10;39.32;;
73746;Laerm;62053;52.002;5.468;2022-09-27T02:10:37;37.51;35.88;38.56;;
73746;Laerm;62053;52.002;5.468;2022-09-27T02:11:12;38.09;36.32;39.29;;
73746;Laerm;62053;52.002;5.468;2022-09-27T02:11:51;37.54;35.73;38.81;;
73746;Laerm;62053;52.002;5.468;2022-09-27T02:12:34;37.58;36.30;38.77;;
73746;Laerm;62053;52.002;5.468;2022-09-27T02:13:19;37.80;36.35;39.29;;
73746;Laerm;62053;52.002;5.468;2022-09-27T02:13:58;37.55;36.10;38.83;;
73746;Laerm;62053;52.002;5.468;2022-09-27T02:14:44;39.21;36.47;49.39;;
73746;Laerm;62053;52.002;5.468;2022-09-27T02:15:17;39.45;37.67;40.91;;
73746;Laerm;62053;52.002;5.468;2022-09-27T02:16:03;39.29;36.97;41.14;;
73746;Laerm;62053;52.002;5.468;2022-09-27T02:16:49;39.32;36.85;41.14;;
73746;Laerm;62053;52.002;5.468;2022-09-27T02:17:30;39.41;37.36;40.98;;
73746;Laerm;62053;52.002;5.468;2022-09-27T02:18:16;39.57;37.39;44.26;;
73746;Laerm;62053;52.002;5.468;2022-09-27T02:19:08;39.77;37.81;41.22;;
73746;Laerm;62053;52.002;5.468;2022-09-27T02:19:54;39.80;37.65;41.24;;
73746;Laerm;62053;52.002;5.468;2022-09-27T02:20:38;39.98;38.06;41.45;;
73746;Laerm;62053;52.002;5.468;2022-09-27T02:21:17;40.59;37.87;45.03;;
73746;Laerm;62053;52.002;5.468;2022-09-27T02:21:59;40.95;38.10;46.78;;
73746;Laerm;62053;52.002;5.468;2022-09-27T02:22:38;40.12;38.55;46.08;;
73746;Laerm;62053;52.002;5.468;2022-09-27T02:23:22;40.29;39.14;41.40;;
73746;Laerm;62053;52.002;5.468;2022-09-27T02:24:01;40.32;38.09;45.37;;
73746;Laerm;62053;52.002;5.468;2022-09-27T02:24:40;38.02;36.27;46.63;;
73746;Laerm;62053;52.002;5.468;2022-09-27T02:25:23;37.79;36.24;39.20;;
73746;Laerm;62053;52.002;5.468;2022-09-27T02:26:00;37.82;36.51;40.47;;
73746;Laerm;62053;52.002;5.468;2022-09-27T02:26:40;38.11;36.58;42.48;;
73746;Laerm;62053;52.002;5.468;2022-09-27T02:27:24;37.69;36.18;39.12;;
73746;Laerm;62053;52.002;5.468;2022-09-27T02:28:08;37.69;36.05;39.08;;
73746;Laerm;62053;52.002;5.468;2022-09-27T02:28:53;37.70;36.34;39.02;;
73746;Laerm;62053;52.002;5.468;2022-09-27T02:29:37;37.46;35.97;38.58;;
73746;Laerm;62053;52.002;5.468;2022-09-27T02:30:14;38.09;36.72;39.24;;
73746;Laerm;62053;52.002;5.468;2022-09-27T02:30:45;37.72;36.36;38.97;;
73746;Laerm;62053;52.002;5.468;2022-09-27T02:31:18;37.53;36.28;38.61;;
73746;Laerm;62053;52.002;5.468;2022-09-27T02:31:50;37.52;36.06;38.56;;
73746;Laerm;62053;52.002;5.468;2022-09-27T02:32:21;37.96;36.25;39.23;;
73746;Laerm;62053;52.002;5.468;2022-09-27T02:32:53;37.68;36.03;38.99;;
73746;Laerm;62053;52.002;5.468;2022-09-27T02:33:32;38.48;36.12;41.75;;
73746;Laerm;62053;52.002;5.468;2022-09-27T02:34:13;37.72;36.09;41.46;;
73746;Laerm;62053;52.002;5.468;2022-09-27T02:34:48;37.46;36.34;38.42;;
73746;Laerm;62053;52.002;5.468;2022-09-27T02:35:26;37.89;35.67;39.30;;
73746;Laerm;62053;52.002;5.468;2022-09-27T02:35:59;38.17;35.92;39.24;;
73746;Laerm;62053;52.002;5.468;2022-09-27T02:36:32;37.65;36.33;38.96;;
73746;Laerm;62053;52.002;5.468;2022-09-27T02:37:03;37.45;35.55;38.67;;
73746;Laerm;62053;52.002;5.468;2022-09-27T02:37:34;37.54;36.34;38.56;;
73746;Laerm;62053;52.002;5.468;2022-09-27T02:38:07;37.92;36.10;39.38;;
73746;Laerm;62053;52.002;5.468;2022-09-27T02:38:39;37.83;36.33;39.08;;
73746;Laerm;62053;52.002;5.468;2022-09-27T02:39:13;37.52;36.06;38.96;;
73746;Laerm;62053;52.002;5.468;2022-09-27T02:39:45;37.48;36.13;38.92;;
73746;Laerm;62053;52.002;5.468;2022-09-27T02:40:17;38.06;36.42;39.99;;
73746;Laerm;62053;52.002;5.468;2022-09-27T02:40:49;37.68;36.21;39.00;;
73746;Laerm;62053;52.002;5.468;2022-09-27T02:41:22;37.48;36.26;39.16;;
73746;Laerm;62053;52.002;5.468;2022-09-27T02:41:53;37.63;36.18;39.09;;
73746;Laerm;62053;52.002;5.468;2022-09-27T02:42:31;37.84;36.33;39.84;;
73746;Laerm;62053;52.002;5.468;2022-09-27T02:43:05;37.44;36.28;38.59;;
73746;Laerm;62053;52.002;5.468;2022-09-27T02:43:35;37.66;36.37;39.27;;
73746;Laerm;62053;52.002;5.468;2022-09-27T02:44:12;37.96;36.49;39.74;;
73746;Laerm;62053;52.002;5.468;2022-09-27T02:44:45;37.48;36.04;38.85;;
73746;Laerm;62053;52.002;5.468;2022-09-27T02:45:18;37.69;36.21;39.07;;
73746;Laerm;62053;52.002;5.468;2022-09-27T02:46:10;37.39;35.59;38.51;;
73746;Laerm;62053;52.002;5.468;2022-09-27T02:47:22;37.70;35.91;39.16;;
73746;Laerm;62053;52.002;5.468;2022-09-27T02:48:17;37.85;36.40;39.26;;
73746;Laerm;62053;52.002;5.468;2022-09-27T02:49:07;37.50;36.01;38.59;;
73746;Laerm;62053;52.002;5.468;2022-09-27T02:49:59;38.06;36.27;39.47;;
73746;Laerm;62053;52.002;5.468;2022-09-27T02:51:02;37.49;35.98;38.76;;
73746;Laerm;62053;52.002;5.468;2022-09-27T02:51:55;37.82;36.12;39.24;;
73746;Laerm;62053;52.002;5.468;2022-09-27T02:52:48;37.50;35.93;38.83;;
73746;Laerm;62053;52.002;5.468;2022-09-27T02:53:36;37.66;36.19;39.75;;
73746;Laerm;62053;52.002;5.468;2022-09-27T02:54:22;37.98;36.07;40.03;;
73746;Laerm;62053;52.002;5.468;2022-09-27T02:55:09;37.71;36.20;39.10;;
73746;Laerm;62053;52.002;5.468;2022-09-27T02:55:57;37.58;35.80;39.01;;
73746;Laerm;62053;52.002;5.468;2022-09-27T02:56:49;37.95;36.22;39.30;;
73746;Laerm;62053;52.002;5.468;2022-09-27T02:57:39;37.85;36.41;39.86;;
73746;Laerm;62053;52.002;5.468;2022-09-27T02:58:28;37.49;35.89;38.86;;
73746;Laerm;62053;52.002;5.468;2022-09-27T02:59:13;37.50;35.93;38.49;;
73746;Laerm;62053;52.002;5.468;2022-09-27T03:00:04;37.89;36.01;39.28;;
73746;Laerm;62053;52.002;5.468;2022-09-27T03:00:50;37.57;35.93;38.84;;
73746;Laerm;62053;52.002;5.468;2022-09-27T03:01:41;37.78;36.30;39.66;;
73746;Laerm;62053;52.002;5.468;2022-09-27T03:02:27;37.56;36.26;39.07;;
73746;Laerm;62053;52.002;5.468;2022-09-27T03:03:08;37.80;36.17;39.28;;
73746;Laerm;62053;52.002;5.468;2022-09-27T03:03:52;37.54;36.31;38.80;;
73746;Laerm;62053;52.002;5.468;2022-09-27T03:04:38;37.68;36.12;39.26;;
73746;Laerm;62053;52.002;5.468;2022-09-27T03:05:17;37.53;36.23;40.97;;
73746;Laerm;62053;52.002;5.468;2022-09-27T03:06:00;38.03;36.52;39.29;;
73746;Laerm;62053;52.002;5.468;2022-09-27T03:06:36;37.70;36.46;39.02;;
73746;Laerm;62053;52.002;5.468;2022-09-27T03:07:09;37.50;36.22;38.61;;
73746;Laerm;62053;52.002;5.468;2022-09-27T03:07:43;37.80;36.41;39.49;;
73746;Laerm;62053;52.002;5.468;2022-09-27T03:08:14;38.57;36.29;53.13;;
73746;Laerm;62053;52.002;5.468;2022-09-27T03:08:47;39.25;37.48;44.26;;
73746;Laerm;62053;52.002;5.468;2022-09-27T03:09:23;39.41;37.48;40.88;;
73746;Laerm;62053;52.002;5.468;2022-09-27T03:09:55;39.38;37.38;41.08;;
73746;Laerm;62053;52.002;5.468;2022-09-27T03:10:28;39.36;37.13;41.01;;
73746;Laerm;62053;52.002;5.468;2022-09-27T03:10:59;39.42;37.23;41.37;;
73746;Laerm;62053;52.002;5.468;2022-09-27T03:11:30;39.60;37.45;41.01;;
73746;Laerm;62053;52.002;5.468;2022-09-27T03:12:03;39.61;37.85;41.00;;
73746;Laerm;62053;52.002;5.468;2022-09-27T03:12:34;39.66;37.88;41.08;;
73746;Laerm;62053;52.002;5.468;2022-09-27T03:13:06;39.77;37.89;41.14;;
73746;Laerm;62053;52.002;5.468;2022-09-27T03:13:37;39.76;37.83;41.06;;
73746;Laerm;62053;52.002;5.468;2022-09-27T03:14:08;40.00;38.09;43.06;;
73746;Laerm;62053;52.002;5.468;2022-09-27T03:14:40;39.81;38.09;41.32;;
73746;Laerm;62053;52.002;5.468;2022-09-27T03:15:11;39.80;38.15;41.38;;
73746;Laerm;62053;52.002;5.468;2022-09-27T03:15:42;39.81;38.09;41.34;;
73746;Laerm;62053;52.002;5.468;2022-09-27T03:16:14;39.87;37.98;42.38;;
73746;Laerm;62053;52.002;5.468;2022-09-27T03:16:45;40.18;39.22;41.02;;
73746;Laerm;62053;52.002;5.468;2022-09-27T03:17:17;39.18;36.34;47.35;;
73746;Laerm;62053;52.002;5.468;2022-09-27T03:17:48;37.83;36.32;39.45;;
73746;Laerm;62053;52.002;5.468;2022-09-27T03:18:20;37.86;36.24;39.23;;
73746;Laerm;62053;52.002;5.468;2022-09-27T03:18:51;37.54;36.22;38.47;;
73746;Laerm;62053;52.002;5.468;2022-09-27T03:19:22;37.56;36.40;38.64;;
73746;Laerm;62053;52.002;5.468;2022-09-27T03:19:54;37.56;36.19;38.66;;
73746;Laerm;62053;52.002;5.468;2022-09-27T03:20:25;37.81;36.18;39.33;;
73746;Laerm;62053;52.002;5.468;2022-09-27T03:20:55;37.52;36.26;39.14;;
73746;Laerm;62053;52.002;5.468;2022-09-27T03:21:27;37.47;35.73;38.69;;
73746;Laerm;62053;52.002;5.468;2022-09-27T03:21:58;38.03;36.51;39.32;;
73746;Laerm;62053;52.002;5.468;2022-09-27T03:22:29;37.63;36.21;39.07;;
73746;Laerm;62053;52.002;5.468;2022-09-27T03:23:01;37.63;36.30;38.71;;
73746;Laerm;62053;52.002;5.468;2022-09-27T03:23:32;37.98;36.36;39.20;;
73746;Laerm;62053;52.002;5.468;2022-09-27T03:24:04;37.90;35.98;40.72;;
73746;Laerm;62053;52.002;5.468;2022-09-27T03:24:35;37.53;36.16;38.81;;
73746;Laerm;62053;52.002;5.468;2022-09-27T03:25:07;37.78;36.31;39.05;;
73746;Laerm;62053;52.002;5.468;2022-09-27T03:25:40;37.57;36.11;38.62;;
73746;Laerm;62053;52.002;5.468;2022-09-27T03:26:11;38.01;36.16;39.20;;
73746;Laerm;62053;52.002;5.468;2022-09-27T03:26:41;37.54;36.02;38.70;;
73746;Laerm;62053;52.002;5.468;2022-09-27T03:27:13;37.53;36.37;38.52;;
73746;Laerm;62053;52.002;5.468;2022-09-27T03:27:44;38.03;36.46;39.38;;
73746;Laerm;62053;52.002;5.468;2022-09-27T03:28:15;37.84;36.35;39.07;;
73746;Laerm;62053;52.002;5.468;2022-09-27T03:28:49;37.38;35.96;38.34;;
73746;Laerm;62053;52.002;5.468;2022-09-27T03:29:20;37.41;36.21;38.57;;
73746;Laerm;62053;52.002;5.468;2022-09-27T03:29:51;38.08;36.48;39.20;;
73746;Laerm;62053;52.002;5.468;2022-09-27T03:30:22;37.49;36.32;38.68;;
73746;Laerm;62053;52.002;5.468;2022-09-27T03:30:54;37.56;36.09;38.97;;
73746;Laerm;62053;52.002;5.468;2022-09-27T03:31:31;38.18;36.90;39.17;;
73746;Laerm;62053;52.002;5.468;2022-09-27T03:32:03;37.65;36.24;39.19;;
73746;Laerm;62053;52.002;5.468;2022-09-27T03:32:35;37.42;36.24;38.72;;
73746;Laerm;62053;52.002;5.468;2022-09-27T03:33:06;37.41;36.08;38.48;;
73746;Laerm;62053;52.002;5.468;2022-09-27T03:33:38;37.49;36.36;38.92;;
73746;Laerm;62053;52.002;5.468;2022-09-27T03:34:09;38.01;36.08;39.23;;
73746;Laerm;62053;52.002;5.468;2022-09-27T03:34:40;37.48;35.91;38.59;;